Whitefish Bay — CFN6287 — position and weather

sailwx.info

Track history (hours):
 
Tides and Currents Weather Stations Pressure Air Temp Water Temp Dewpoint Dewpoint Depression Visibility Wind Speed Wind Dir Waves Ship Positions

Whitefish Bay

Last reported at 2017-Dec-11 19:39 UTC. Time now 2017-Dec-15 15:53 UTC.
Position N 45°13' W 074°18'.

Length 225 m; draft 7.5 m.

Type: Cargo ship. MMSI: 316023341.

Date/timePositionNaut miles runAvg speedWind from/ knotsBaromVisibWave heightAir tempDewpointWater temp
2017-Dec-11 19:39N 45°13' W 074°18'311.0
2017-Dec-11 19:24N 45°14' W 074°14'4 9.4
2017-Dec-11 19:00N 45°14' W 074°09'4 8.5
2017-Dec-11 18:30N 45°13' W 074°03'4 8.4
2017-Dec-11 18:00N 45°16' W 073°58'3 6.2
2017-Dec-11 17:31N 45°18' W 073°56'0 0.2
2017-Dec-11 17:00N 45°18' W 073°56'1 1.5
2017-Dec-11 16:31N 45°19' W 073°55'0 0.2
2017-Dec-11 16:01N 45°19' W 073°55'1 2.8
2017-Dec-11 15:30N 45°20' W 073°54'5 9.9
2017-Dec-11 15:00N 45°23' W 073°48'4 8.6
2017-Dec-11 14:30N 45°25' W 073°42'3 5.7
2017-Dec-11 14:00N 45°24' W 073°38'3 5.3
2017-Dec-11 13:31N 45°24' W 073°35'1 1.2
2017-Dec-11 13:01N 45°24' W 073°34'1 2.0
2017-Dec-11 12:31N 45°24' W 073°32'3 5.4
2017-Dec-11 12:01N 45°27' W 073°30'3 6.0
2017-Dec-11 11:31N 45°30' W 073°31'0 0.4
2017-Dec-11 10:57N 45°30' W 073°31'1 1.7
2017-Dec-11 10:14N 45°31' W 073°31'  
2017-Dec-08 00:10N 45°28' W 073°30'3 5.4
2017-Dec-07 23:36N 45°25' W 073°31'1 6.2
2017-Dec-07 23:30N 45°25' W 073°32'2 3.2
2017-Dec-07 23:00N 45°24' W 073°34'0 0.4
2017-Dec-07 22:31N 45°24' W 073°34'1 2.9
2017-Dec-07 22:00N 45°24' W 073°36'3 5.5
2017-Dec-07 21:30N 45°25' W 073°40'3 6.9
2017-Dec-07 21:00N 45°24' W 073°45'510.7
2017-Dec-07 20:30N 45°21' W 073°51'4 7.0
2017-Dec-07 20:00N 45°19' W 073°55'0 0.4
2017-Dec-07 19:31N 45°19' W 073°55'1 1.3
2017-Dec-07 19:01N 45°18' W 073°56'0 0.5
2017-Dec-07 18:31N 45°18' W 073°56'1 2.8
2017-Dec-07 17:59N 45°17' W 073°57'4 9.1
2017-Dec-07 17:30N 45°14' W 074°01'  
2017-Dec-04 08:10N 45°32' W 083°21'212.5
2017-Dec-04 07:58N 45°34' W 083°24'612.6
2017-Dec-04 07:30N 45°38' W 083°29'2012.6
2017-Dec-04 05:57N 45°53' W 083°48'32810.0
2017-Dec-02 21:19N 47°02' W 091°34'412.3
2017-Dec-02 21:00N 47°00' W 091°39'1 0.1
2017-Dec-02 12:54N 47°01' W 091°40'1 1.6
2017-Dec-02 12:30N 47°00' W 091°40'0 0.3
2017-Dec-02 12:00N 47°00' W 091°40'0 0.1
2017-Dec-02 11:30N 47°00' W 091°40'0 0.1
2017-Dec-02 11:00N 47°00' W 091°40'0 0.0
2017-Dec-02 10:30N 47°00' W 091°40'0 0.0
2017-Dec-02 10:00N 47°00' W 091°40'0 0.0
2017-Dec-02 09:30N 47°00' W 091°40'0 0.0
2017-Dec-02 09:00N 47°00' W 091°40'0 0.0
2017-Dec-02 08:30N 47°00' W 091°40'0 0.0
2017-Dec-02 08:00N 47°00' W 091°40'0 0.1
2017-Dec-02 07:30N 47°00' W 091°40'0 0.0
2017-Dec-02 07:00N 47°00' W 091°40'0 0.0
2017-Dec-02 06:30N 46°60' W 091°40'0 0.1
2017-Dec-02 05:59N 47°00' W 091°40'0 0.0
2017-Dec-02 05:29N 47°00' W 091°40'  
Track history (hours):
 
Tides and Currents Weather Stations Pressure Air Temp Water Temp Dewpoint Dewpoint Depression Visibility Wind Speed Wind Dir Waves Ship Positions

Whitefish Bay

Last reported at 2017-Dec-11 19:39 UTC. Time now 2017-Dec-15 15:53 UTC.
Position N 45°13' W 074°18'.

Length 225 m; draft 7.5 m.

Type: Cargo ship. MMSI: 316023341.

Date/timePositionNaut miles runAvg speedWind from/ knotsBaromVisibWave heightAir tempDewpointWater temp
2017-Dec-11 19:39N 45°13' W 074°18'311.0
2017-Dec-11 19:24N 45°14' W 074°14'4 9.4
2017-Dec-11 19:00N 45°14' W 074°09'4 8.5
2017-Dec-11 18:30N 45°13' W 074°03'4 8.4
2017-Dec-11 18:00N 45°16' W 073°58'3 6.2
2017-Dec-11 17:31N 45°18' W 073°56'0 0.2
2017-Dec-11 17:00N 45°18' W 073°56'1 1.5
2017-Dec-11 16:31N 45°19' W 073°55'0 0.2
2017-Dec-11 16:01N 45°19' W 073°55'1 2.8
2017-Dec-11 15:30N 45°20' W 073°54'5 9.9
2017-Dec-11 15:00N 45°23' W 073°48'4 8.6
2017-Dec-11 14:30N 45°25' W 073°42'3 5.7
2017-Dec-11 14:00N 45°24' W 073°38'3 5.3
2017-Dec-11 13:31N 45°24' W 073°35'1 1.2
2017-Dec-11 13:01N 45°24' W 073°34'1 2.0
2017-Dec-11 12:31N 45°24' W 073°32'3 5.4
2017-Dec-11 12:01N 45°27' W 073°30'3 6.0
2017-Dec-11 11:31N 45°30' W 073°31'0 0.4
2017-Dec-11 10:57N 45°30' W 073°31'1 1.7
2017-Dec-11 10:14N 45°31' W 073°31'  
2017-Dec-08 00:10N 45°28' W 073°30'3 5.4
2017-Dec-07 23:36N 45°25' W 073°31'1 6.2
2017-Dec-07 23:30N 45°25' W 073°32'2 3.2
2017-Dec-07 23:00N 45°24' W 073°34'0 0.4
2017-Dec-07 22:31N 45°24' W 073°34'1 2.9
2017-Dec-07 22:00N 45°24' W 073°36'3 5.5
2017-Dec-07 21:30N 45°25' W 073°40'3 6.9
2017-Dec-07 21:00N 45°24' W 073°45'510.7
2017-Dec-07 20:30N 45°21' W 073°51'4 7.0
2017-Dec-07 20:00N 45°19' W 073°55'0 0.4
2017-Dec-07 19:31N 45°19' W 073°55'1 1.3
2017-Dec-07 19:01N 45°18' W 073°56'0 0.5
2017-Dec-07 18:31N 45°18' W 073°56'1 2.8
2017-Dec-07 17:59N 45°17' W 073°57'4 9.1
2017-Dec-07 17:30N 45°14' W 074°01'  
2017-Dec-04 08:10N 45°32' W 083°21'212.5
2017-Dec-04 07:58N 45°34' W 083°24'612.6
2017-Dec-04 07:30N 45°38' W 083°29'2012.6
2017-Dec-04 05:57N 45°53' W 083°48'32810.0
2017-Dec-02 21:19N 47°02' W 091°34'412.3
2017-Dec-02 21:00N 47°00' W 091°39'1 0.1
2017-Dec-02 12:54N 47°01' W 091°40'1 1.6
2017-Dec-02 12:30N 47°00' W 091°40'0 0.3
2017-Dec-02 12:00N 47°00' W 091°40'0 0.1
2017-Dec-02 11:30N 47°00' W 091°40'0 0.1
2017-Dec-02 11:00N 47°00' W 091°40'0 0.0
2017-Dec-02 10:30N 47°00' W 091°40'0 0.0
2017-Dec-02 10:00N 47°00' W 091°40'0 0.0
2017-Dec-02 09:30N 47°00' W 091°40'0 0.0
2017-Dec-02 09:00N 47°00' W 091°40'0 0.0
2017-Dec-02 08:30N 47°00' W 091°40'0 0.0
2017-Dec-02 08:00N 47°00' W 091°40'0 0.1
2017-Dec-02 07:30N 47°00' W 091°40'0 0.0
2017-Dec-02 07:00N 47°00' W 091°40'0 0.0
2017-Dec-02 06:30N 46°60' W 091°40'0 0.1
2017-Dec-02 05:59N 47°00' W 091°40'0 0.0
2017-Dec-02 05:29N 47°00' W 091°40'  

Dump ship's entire track history